LTARLTAU

Guest
Details From LTAR - SIVAS
To LTAU - ERKILET
Flight Number -
Tags generated
Created
Modified
Stats Distance 91 nm / 168 km
Max Altitude 14,500 ft / 4,420 m
Waypoints 4
Social Downloads 0
Likes 0
Share VATSIM

Download

Looking for another format? Having issues loading an existing format? Contact us
Advertisement - Login to hide

Notes

Basic altitude profile: - Ascent Rate: 2500ft/min - Ascent Speed: 250kts - Cruise Altitude: 35000ft - Cruise Speed: 420kts - Descent Rate: 1500ft/min - Descent Speed: 250kts Options: - Use NATs: yes - Use PACOTS: yes - Use low airways: yes - Use high airways: yes

Route

LTAR GEM A285 TIRMA LTAU

ID Type Via Altitude Latitude Longitude Leg Dist Tot Dist Heading (true) Name
O LTAR APT - 0 ft / 0 m 39.81383˚ 36.90350˚ - 0 nm - SIVAS
GEM VOR - 7,200 ft / 2,195 m 39.15528˚ 36.02917˚ 56 nm 56 nm 226° / 225° GEMEREK VOR-DME
TIRMA FIX A285 (AWY-LO) 14,500 ft / 4,420 m 38.94222˚ 35.76500˚ 17 nm 74 nm 224° / 224° -
O LTAU APT - 0 ft / 0 m 38.77038˚ 35.49543˚ 16 nm 90 nm 231° / 231° ERKILET

Altitude Profile

Advertisement - Login to hide

LTAR

Details ICAO LTAR (VAS)
Name SIVAS
Region Turkey
Timezone Europe/Istanbul (UTC+3.0)
Stats Elevation 5,236 ft / 1,596 m (AMSL)
Location 39.813834° 36.903500°
Runways 1
Magnetic Variation 5.921° E

METAR

LTAR 112050Z 00000KT CAVOK M01/M02 Q1028

Decode

TAF

Not found

Departure Runways

ID Width Length Bearing (true) Bearing (mag) Surface Threshold Offset Overrun Length
01 98 ft / 30 m 12,521 ft / 3,816 m 17.81° 11.89° Concrete 0 ft / 0 m 690 ft / 210 m
19 98 ft / 30 m 12,521 ft / 3,816 m 197.82° 191.90° Concrete 0 ft / 0 m 0 ft / 0 m

LTAU

Details ICAO LTAU (ASR)
Name ERKILET
Region Turkey
Timezone Europe/Istanbul (UTC+3.0)
Stats Elevation 3,463 ft / 1,056 m (AMSL)
Location 38.770384° 35.495427°
Runways 1
Magnetic Variation 5.653° E

METAR

LTAU 112120Z 04004KT CAVOK M01/M02 Q1028 NOSIG

Decode

TAF

Not found

Destination Runways

ID Width Length Bearing (true) Bearing (mag) Surface Threshold Offset Overrun Length
07 145 ft / 44 m 9,822 ft / 2,994 m 76.29° 70.64° Concrete 0 ft / 0 m 500 ft / 152 m
25 145 ft / 44 m 9,822 ft / 2,994 m 256.31° 250.66° Concrete 0 ft / 0 m 500 ft / 152 m

Approach Navaids

Runway Type Ident Frequency Range Bearing (true) Bearing (mag) Slope Elevation
25 Localiser IKSR 110.30 MHz 18 nm / 33 km 256.40° 250.75° - 3,453 ft / 1,052 m (AMSL)
25 Glidescope IKSR 110.30 MHz 10 nm / 19 km 256.30° 250.65° 3.00° 3,463 ft / 1,056 m (AMSL)

Popular Alternatives